McKenna, Washington
Current Conditions -  °F | °C
As of 5:58 AM on Tuesday 27 Jan 2015 (Local Time) from KGRF Reporting Station
Broken Clouds Broken Clouds  
Wind Chill: 42°   Ceiling: 2100
Heat Index: 44°   Visibility: 10mi
Dew Point: 44°   Wind: 5mph
Humidity: 100%   Direction: 160°SSE
Pressure: 30.01"   Gusts: NA
Location:  46.93°N, 122.56°W
Report Text: KGRF 271358Z 16004KT 10SM BKN021 07/07 A3001 RMK AO2A SLP167 T00690069 PWINO $
Loading
Personal Weather Stations






























Interactive Weather Map New forecast layout! Learn more

10-Day Weather Forecast

Advertisements
Track Severe Weather on mobile